Time;durP1;ratioP1;P1;durP2;ratioP2;P2;SDS_P1;SDS_P2;PMS_P1;PMS_P2;Temp;Humidity;BMP_temperature;BMP_pressure;BME280_temperature;BME280_humidity;BME280_pressure;Samples;Min_cycle;Max_cycle;Signal;HPM_P1;HPM_P2
2024/01/04 00:01:38;;;;;;;1.27;1.10;;;;;;;;;;5001791;28;20224;-71
2024/01/04 00:04:05;;;;;;;1.50;0.90;;;;;;;;;;4996432;28;20683;-71
2024/01/04 00:06:33;;;;;;;2.10;1.13;;;;;;;;;;4998428;28;20224;-69
2024/01/04 00:09:00;;;;;;;2.97;1.30;;;;;;;;;;4999678;28;20208;-72
2024/01/04 00:11:27;;;;;;;1.93;1.10;;;;;;;;;;4994408;28;20261;-71
2024/01/04 00:13:55;;;;;;;2.33;1.00;;;;;;;;;;4992514;28;20231;-71
2024/01/04 00:16:22;;;;;;;4.57;1.27;;;;;;;;;;4998714;28;20239;-70
2024/01/04 00:18:50;;;;;;;1.17;1.07;;;;;;;;;;4991269;28;21157;-70
2024/01/04 00:21:17;;;;;;;2.57;0.97;;;;;;;;;;5004709;28;20204;-71
2024/01/04 00:23:44;;;;;;;4.73;1.17;;;;;;;;;;5000881;28;20330;-69
2024/01/04 00:26:12;;;;;;;2.93;1.00;;;;;;;;;;4999731;28;20219;-72
2024/01/04 00:28:39;;;;;;;4.20;1.20;;;;;;;;;;4998336;28;20212;-70
2024/01/04 00:31:06;;;;;;;2.07;1.10;;;;;;;;;;4998605;28;20207;-70
2024/01/04 00:33:35;;;;;;;2.93;1.10;;;;;;;;;;4994704;28;20219;-70
2024/01/04 00:36:03;;;;;;;1.73;1.20;;;;;;;;;;4995346;28;20210;-71
2024/01/04 00:38:30;;;;;;;2.37;1.27;;;;;;;;;;4994036;28;20207;-71
2024/01/04 00:40:58;;;;;;;1.40;1.07;;;;;;;;;;4999194;28;20285;-71
2024/01/04 00:43:25;;;;;;;3.50;1.23;;;;;;;;;;5001624;28;20642;-71
2024/01/04 00:45:52;;;;;;;2.40;1.13;;;;;;;;;;4995926;28;20220;-70
2024/01/04 00:48:20;;;;;;;1.80;0.93;;;;;;;;;;4999645;28;20259;-71
2024/01/04 00:50:47;;;;;;;1.00;1.00;;;;;;;;;;4998868;28;20286;-71
2024/01/04 00:53:15;;;;;;;3.07;1.10;;;;;;;;;;5001858;28;20227;-71
2024/01/04 00:55:42;;;;;;;3.70;1.10;;;;;;;;;;5000437;28;20707;-71
2024/01/04 00:58:09;;;;;;;3.57;0.93;;;;;;;;;;5000072;28;20694;-71
2024/01/04 01:00:36;;;;;;;1.50;1.20;;;;;;;;;;5000816;28;20204;-71
2024/01/04 01:03:04;;;;;;;1.37;0.90;;;;;;;;;;4997725;28;20246;-71
2024/01/04 01:05:31;;;;;;;2.87;1.13;;;;;;;;;;5002321;28;20719;-72
2024/01/04 01:08:01;;;;;;;1.30;1.20;;;;;;;;;;4998795;28;20676;-69
2024/01/04 01:10:29;;;;;;;2.77;1.00;;;;;;;;;;5001533;28;20218;-70
2024/01/04 01:12:57;;;;;;;4.40;1.20;;;;;;;;;;5027345;28;20608;-68
2024/01/04 01:15:25;;;;;;;3.00;1.23;;;;;;;;;;5031523;28;20242;-71
2024/01/04 01:17:52;;;;;;;1.97;1.00;;;;;;;;;;5023806;28;20265;-71
2024/01/04 01:20:19;;;;;;;2.80;1.13;;;;;;;;;;5015269;28;20200;-72
2024/01/04 01:22:47;;;;;;;3.03;1.10;;;;;;;;;;5014091;28;20228;-72
2024/01/04 01:25:14;;;;;;;1.40;1.27;;;;;;;;;;5015152;28;20227;-70
2024/01/04 01:27:41;;;;;;;1.77;1.10;;;;;;;;;;5013078;28;20207;-72
2024/01/04 01:30:09;;;;;;;2.07;1.10;;;;;;;;;;5013692;28;20219;-71
2024/01/04 01:32:36;;;;;;;1.70;1.00;;;;;;;;;;5019021;28;20227;-73
2024/01/04 01:35:04;;;;;;;1.50;1.10;;;;;;;;;;5011950;28;20207;-70
2024/01/04 01:37:31;;;;;;;1.80;1.07;;;;;;;;;;5012194;28;20250;-72
2024/01/04 01:40:00;;;;;;;2.17;1.20;;;;;;;;;;5011441;28;20241;-71
2024/01/04 01:42:29;;;;;;;1.70;0.80;;;;;;;;;;5012813;28;20224;-72
2024/01/04 01:44:56;;;;;;;1.60;1.20;;;;;;;;;;5012426;28;20274;-72
2024/01/04 01:47:24;;;;;;;7.50;1.40;;;;;;;;;;5018536;28;20208;-71
2024/01/04 01:49:51;;;;;;;2.10;1.17;;;;;;;;;;5010843;28;20211;-71
2024/01/04 01:52:19;;;;;;;5.60;1.20;;;;;;;;;;5013963;28;20310;-71
2024/01/04 01:54:47;;;;;;;4.93;1.10;;;;;;;;;;5012861;28;20208;-71
2024/01/04 01:57:15;;;;;;;1.23;1.00;;;;;;;;;;5011749;28;20294;-71
2024/01/04 01:59:44;;;;;;;2.40;1.30;;;;;;;;;;5013274;28;20200;-70
2024/01/04 02:02:12;;;;;;;1.83;1.20;;;;;;;;;;5015006;28;20254;-70
2024/01/04 02:04:40;;;;;;;1.57;1.13;;;;;;;;;;5012947;28;20795;-71
2024/01/04 02:07:07;;;;;;;1.93;1.00;;;;;;;;;;5012711;28;20219;-72
2024/01/04 02:09:35;;;;;;;1.70;1.10;;;;;;;;;;5013157;28;20790;-70
2024/01/04 02:12:06;;;;;;;1.23;0.90;;;;;;;;;;5012887;28;20659;-71
2024/01/04 02:14:35;;;;;;;3.30;1.10;;;;;;;;;;5011894;28;20207;-70
2024/01/04 02:17:02;;;;;;;3.53;1.20;;;;;;;;;;5014562;28;20210;-71
2024/01/04 02:19:30;;;;;;;2.73;1.23;;;;;;;;;;5017099;28;20579;-72
2024/01/04 02:21:58;;;;;;;2.43;0.97;;;;;;;;;;5012898;28;20223;-71
2024/01/04 02:24:25;;;;;;;1.43;1.00;;;;;;;;;;5017255;28;20210;-71
2024/01/04 02:26:53;;;;;;;1.37;1.10;;;;;;;;;;5011969;28;20687;-70
2024/01/04 02:29:20;;;;;;;1.03;1.00;;;;;;;;;;5012105;28;20558;-72
2024/01/04 02:31:51;;;;;;;4.43;1.50;;;;;;;;;;5008391;28;20207;-72
2024/01/04 02:34:18;;;;;;;1.57;1.10;;;;;;;;;;5012299;28;20227;-72
2024/01/04 02:36:46;;;;;;;4.70;1.40;;;;;;;;;;5010621;28;20833;-72
2024/01/04 02:39:13;;;;;;;2.17;1.03;;;;;;;;;;5019990;28;20215;-71
2024/01/04 02:41:41;;;;;;;2.93;1.50;;;;;;;;;;5012238;28;20242;-71
2024/01/04 02:44:08;;;;;;;1.20;1.10;;;;;;;;;;5012200;28;20274;-71
2024/01/04 02:46:38;;;;;;;1.17;1.07;;;;;;;;;;5011859;28;20581;-71
2024/01/04 02:49:06;;;;;;;3.67;1.27;;;;;;;;;;5009533;28;20204;-69
2024/01/04 02:51:33;;;;;;;1.63;1.20;;;;;;;;;;5013626;28;20242;-70
2024/01/04 02:54:00;;;;;;;2.80;1.10;;;;;;;;;;5012003;28;20746;-70
2024/01/04 02:56:28;;;;;;;1.23;1.10;;;;;;;;;;5019248;28;20207;-71
2024/01/04 02:58:58;;;;;;;2.03;1.00;;;;;;;;;;5017402;28;20207;-71
2024/01/04 03:01:25;;;;;;;1.60;0.90;;;;;;;;;;5011862;28;20615;-70
2024/01/04 03:03:55;;;;;;;0.90;0.90;;;;;;;;;;5011347;28;20219;-69
2024/01/04 03:06:22;;;;;;;2.20;1.20;;;;;;;;;;5018929;28;20730;-74
2024/01/04 03:08:50;;;;;;;1.63;1.00;;;;;;;;;;5011891;28;20218;-69
2024/01/04 03:11:18;;;;;;;1.00;0.90;;;;;;;;;;5011880;28;20188;-70
2024/01/04 03:13:49;;;;;;;1.00;0.90;;;;;;;;;;5011388;28;20309;-70
2024/01/04 03:16:19;;;;;;;1.43;0.93;;;;;;;;;;5011703;28;20219;-72
2024/01/04 03:18:46;;;;;;;1.33;1.23;;;;;;;;;;5011225;28;20204;-69
2024/01/04 03:21:14;;;;;;;1.93;1.07;;;;;;;;;;5011420;28;20207;-71
2024/01/04 03:23:42;;;;;;;1.50;0.90;;;;;;;;;;5011478;28;20235;-72
2024/01/04 03:26:09;;;;;;;3.07;2.80;;;;;;;;;;5011564;28;20277;-74
2024/01/04 03:28:37;;;;;;;1.17;0.90;;;;;;;;;;5011511;28;20310;-73
2024/01/04 03:31:04;;;;;;;3.37;1.07;;;;;;;;;;5003791;28;20711;-71
2024/01/04 03:33:31;;;;;;;2.03;1.30;;;;;;;;;;5011245;28;20622;-71
2024/01/04 03:35:59;;;;;;;0.90;0.90;;;;;;;;;;5016648;28;20238;-70
2024/01/04 03:38:26;;;;;;;1.50;0.80;;;;;;;;;;5014861;28;20199;-73
2024/01/04 03:40:54;;;;;;;0.90;0.90;;;;;;;;;;5012724;28;20657;-71
2024/01/04 03:43:21;;;;;;;0.97;0.83;;;;;;;;;;5013006;28;20223;-72
2024/01/04 03:45:48;;;;;;;1.33;0.87;;;;;;;;;;5012837;28;20251;-72
2024/01/04 03:48:15;;;;;;;0.80;0.80;;;;;;;;;;5009672;28;20208;-72
2024/01/04 03:50:43;;;;;;;1.10;1.00;;;;;;;;;;5013503;28;20677;-73
2024/01/04 03:53:10;;;;;;;1.20;1.10;;;;;;;;;;5010183;28;20238;-71
2024/01/04 03:55:37;;;;;;;0.87;0.87;;;;;;;;;;5009906;28;20219;-70
2024/01/04 03:58:04;;;;;;;0.93;0.83;;;;;;;;;;5019690;28;20277;-70
2024/01/04 04:00:32;;;;;;;0.80;0.80;;;;;;;;;;5011240;28;20644;-70
2024/01/04 04:02:59;;;;;;;2.43;1.07;;;;;;;;;;5018442;28;20896;-72
2024/01/04 04:05:26;;;;;;;0.90;0.90;;;;;;;;;;5030850;28;20207;-71
2024/01/04 04:07:54;;;;;;;1.77;1.00;;;;;;;;;;5015487;28;20250;-72
2024/01/04 04:10:22;;;;;;;0.93;0.87;;;;;;;;;;5010754;28;20204;-72
2024/01/04 04:12:49;;;;;;;1.13;1.00;;;;;;;;;;5019226;28;20313;-70
2024/01/04 04:15:17;;;;;;;3.80;1.10;;;;;;;;;;5012391;28;20215;-70
2024/01/04 04:17:44;;;;;;;1.03;0.90;;;;;;;;;;5009559;28;20207;-72
2024/01/04 04:20:12;;;;;;;1.93;1.10;;;;;;;;;;5010985;28;20203;-73
2024/01/04 04:22:39;;;;;;;1.70;1.30;;;;;;;;;;5013322;28;20227;-71
2024/01/04 04:25:06;;;;;;;1.27;0.80;;;;;;;;;;5010673;28;20698;-70
2024/01/04 04:27:34;;;;;;;2.50;1.47;;;;;;;;;;5015838;28;20227;-74
2024/01/04 04:30:01;;;;;;;1.17;0.90;;;;;;;;;;5010109;28;20218;-72
2024/01/04 04:32:29;;;;;;;0.80;0.80;;;;;;;;;;5010311;28;20219;-70
2024/01/04 04:34:56;;;;;;;0.80;0.80;;;;;;;;;;5014912;28;20358;-73
2024/01/04 04:37:23;;;;;;;0.87;0.80;;;;;;;;;;5012582;28;20257;-69
2024/01/04 04:39:50;;;;;;;2.37;1.00;;;;;;;;;;5020571;28;20203;-70
2024/01/04 04:42:18;;;;;;;1.07;1.00;;;;;;;;;;5012050;28;20243;-71
2024/01/04 04:44:45;;;;;;;1.10;1.00;;;;;;;;;;5011516;28;20626;-71
2024/01/04 04:47:12;;;;;;;2.20;1.00;;;;;;;;;;5006573;28;20256;-72
2024/01/04 04:49:39;;;;;;;1.23;1.00;;;;;;;;;;5016414;28;20203;-72
2024/01/04 04:52:07;;;;;;;0.93;0.93;;;;;;;;;;5010142;28;20223;-75
2024/01/04 04:54:34;;;;;;;1.30;1.20;;;;;;;;;;5013775;28;20254;-74
2024/01/04 04:57:03;;;;;;;2.07;0.90;;;;;;;;;;5010162;28;20207;-72
2024/01/04 04:59:31;;;;;;;1.13;1.10;;;;;;;;;;5012879;28;20234;-70
2024/01/04 05:01:58;;;;;;;0.80;0.80;;;;;;;;;;5013396;28;20218;-71
2024/01/04 05:04:25;;;;;;;0.80;0.80;;;;;;;;;;5014832;28;20211;-71
2024/01/04 05:06:53;;;;;;;1.20;1.20;;;;;;;;;;5013473;28;20231;-73
2024/01/04 05:09:20;;;;;;;1.03;1.00;;;;;;;;;;5028372;28;20236;-70
2024/01/04 05:11:47;;;;;;;0.90;0.90;;;;;;;;;;5017101;28;20608;-70
2024/01/04 05:14:15;;;;;;;0.80;0.80;;;;;;;;;;5013326;28;20211;-74
2024/01/04 05:16:44;;;;;;;0.90;0.90;;;;;;;;;;5017857;28;20227;-70
2024/01/04 05:19:11;;;;;;;1.43;0.90;;;;;;;;;;5013452;28;20214;-72
2024/01/04 05:21:39;;;;;;;1.90;1.00;;;;;;;;;;5012604;28;20254;-73
2024/01/04 05:24:06;;;;;;;0.97;0.90;;;;;;;;;;5009854;28;20231;-71
2024/01/04 05:26:33;;;;;;;0.90;0.90;;;;;;;;;;5013760;28;20218;-72
2024/01/04 05:29:00;;;;;;;0.80;0.80;;;;;;;;;;5011774;28;20215;-70
2024/01/04 05:31:28;;;;;;;1.00;0.90;;;;;;;;;;5007085;28;20597;-72
2024/01/04 05:33:55;;;;;;;2.93;0.90;;;;;;;;;;5017087;28;20639;-72
2024/01/04 05:36:23;;;;;;;1.57;0.90;;;;;;;;;;5013066;28;20261;-72
2024/01/04 05:38:51;;;;;;;3.73;1.60;;;;;;;;;;5011571;28;20212;-69
2024/01/04 05:41:23;;;;;;;1.50;0.93;;;;;;;;;;5014843;28;20208;-72
2024/01/04 05:43:52;;;;;;;3.40;1.83;;;;;;;;;;5021313;28;20233;-69
2024/01/04 05:46:22;;;;;;;3.33;1.50;;;;;;;;;;5019899;28;20226;-69
2024/01/04 05:48:50;;;;;;;3.60;1.13;;;;;;;;;;5013634;28;20257;-70
2024/01/04 05:51:18;;;;;;;2.00;1.30;;;;;;;;;;5004518;28;20239;-72
2024/01/04 05:53:46;;;;;;;0.90;0.90;;;;;;;;;;5002050;28;20298;-71
2024/01/04 05:56:13;;;;;;;1.23;0.90;;;;;;;;;;4997621;28;20216;-73
2024/01/04 05:58:41;;;;;;;1.40;1.10;;;;;;;;;;4992463;28;20626;-73
2024/01/04 06:01:08;;;;;;;3.00;1.43;;;;;;;;;;4992607;28;20308;-72
2024/01/04 06:03:36;;;;;;;3.00;1.27;;;;;;;;;;4988626;28;20227;-72
2024/01/04 06:06:03;;;;;;;2.13;1.00;;;;;;;;;;4991366;28;20212;-72
2024/01/04 06:08:31;;;;;;;1.93;1.10;;;;;;;;;;4997574;28;20214;-71
2024/01/04 06:10:58;;;;;;;1.33;0.83;;;;;;;;;;4992936;28;20203;-72
2024/01/04 06:13:26;;;;;;;1.73;1.63;;;;;;;;;;4994299;28;20711;-71
2024/01/04 06:15:54;;;;;;;2.77;1.90;;;;;;;;;;4988098;28;20205;-72
2024/01/04 06:18:23;;;;;;;2.50;1.10;;;;;;;;;;4995057;28;20272;-73
2024/01/04 06:20:51;;;;;;;3.60;1.10;;;;;;;;;;4987601;28;20224;-72
2024/01/04 06:23:19;;;;;;;1.97;1.37;;;;;;;;;;4995285;28;20255;-72
2024/01/04 06:25:46;;;;;;;1.70;1.07;;;;;;;;;;4996557;28;20210;-70
2024/01/04 06:28:14;;;;;;;2.20;1.50;;;;;;;;;;4996770;28;20228;-72
2024/01/04 06:30:41;;;;;;;1.67;1.20;;;;;;;;;;4991204;28;20672;-72
2024/01/04 06:33:09;;;;;;;1.10;1.10;;;;;;;;;;4994478;28;20255;-72
2024/01/04 06:35:36;;;;;;;1.40;1.30;;;;;;;;;;4990187;28;20212;-71
2024/01/04 06:38:07;;;;;;;2.10;1.20;;;;;;;;;;4992836;28;20223;-72
2024/01/04 06:40:38;;;;;;;2.73;1.70;;;;;;;;;;4994648;28;20227;-72
2024/01/04 06:43:09;;;;;;;1.73;1.30;;;;;;;;;;4991106;28;20240;-72
2024/01/04 06:45:36;;;;;;;2.03;1.70;;;;;;;;;;4988378;28;20214;-72
2024/01/04 06:48:04;;;;;;;2.83;1.30;;;;;;;;;;4994621;28;20773;-72
2024/01/04 06:50:32;;;;;;;1.23;1.03;;;;;;;;;;5002326;28;20571;-72
2024/01/04 06:52:59;;;;;;;1.60;1.10;;;;;;;;;;5000206;28;20306;-72
2024/01/04 06:55:27;;;;;;;1.57;1.47;;;;;;;;;;5000443;28;20199;-72
2024/01/04 06:57:54;;;;;;;5.07;3.93;;;;;;;;;;4994175;28;20772;-73
2024/01/04 07:00:23;;;;;;;4.53;2.00;;;;;;;;;;4996047;28;20200;-72
2024/01/04 07:02:51;;;;;;;3.97;1.57;;;;;;;;;;4991704;28;20252;-73
2024/01/04 07:05:20;;;;;;;1.20;1.00;;;;;;;;;;5004490;28;20206;-73
2024/01/04 07:07:47;;;;;;;1.37;1.17;;;;;;;;;;4994853;28;20317;-72
2024/01/04 07:10:15;;;;;;;3.37;1.60;;;;;;;;;;4994602;28;20274;-72
2024/01/04 07:12:43;;;;;;;6.20;3.80;;;;;;;;;;4993898;28;20308;-72
2024/01/04 07:15:11;;;;;;;3.60;1.50;;;;;;;;;;4992865;28;20318;-72
2024/01/04 07:17:38;;;;;;;2.23;1.37;;;;;;;;;;4995690;28;20214;-73
2024/01/04 07:20:06;;;;;;;4.33;1.70;;;;;;;;;;5000031;28;20258;-73
2024/01/04 07:22:34;;;;;;;1.40;1.20;;;;;;;;;;4995130;28;20227;-71
2024/01/04 07:25:03;;;;;;;4.03;2.27;;;;;;;;;;4990075;28;20563;-72
2024/01/04 07:27:31;;;;;;;3.13;2.50;;;;;;;;;;5005408;28;20273;-72
2024/01/04 07:30:00;;;;;;;3.83;1.57;;;;;;;;;;5001535;28;20230;-73
2024/01/04 07:32:28;;;;;;;1.57;1.27;;;;;;;;;;5005952;28;20227;-72
2024/01/04 07:34:56;;;;;;;3.77;1.40;;;;;;;;;;4999384;28;20195;-72
2024/01/04 07:37:41;;;;;;;1.90;1.20;;;;;;;;;;4997544;28;20569;-71
2024/01/04 07:40:08;;;;;;;1.77;1.13;;;;;;;;;;4999514;28;20214;-72
2024/01/04 07:42:36;;;;;;;3.67;1.23;;;;;;;;;;5002765;28;20227;-72
2024/01/04 07:45:05;;;;;;;2.50;1.17;;;;;;;;;;4997203;28;20590;-72
2024/01/04 07:47:36;;;;;;;3.17;1.40;;;;;;;;;;5003646;28;20230;-72
2024/01/04 07:50:05;;;;;;;5.43;2.63;;;;;;;;;;5004693;28;20674;-72
2024/01/04 07:52:33;;;;;;;4.73;1.37;;;;;;;;;;4997201;28;20227;-72
2024/01/04 07:55:01;;;;;;;2.93;1.40;;;;;;;;;;4996870;28;20207;-72
2024/01/04 07:57:33;;;;;;;3.47;2.10;;;;;;;;;;4995702;28;20242;-72
2024/01/04 08:00:00;;;;;;;1.63;1.50;;;;;;;;;;4990504;28;20207;-73
2024/01/04 08:02:30;;;;;;;4.40;1.40;;;;;;;;;;4998303;28;20316;-73
2024/01/04 08:04:57;;;;;;;1.93;1.40;;;;;;;;;;4989390;28;20209;-72
2024/01/04 08:07:25;;;;;;;2.70;1.20;;;;;;;;;;4989226;28;20235;-73
2024/01/04 08:09:52;;;;;;;2.07;1.20;;;;;;;;;;4988245;28;20202;-72
2024/01/04 08:12:19;;;;;;;8.10;1.60;;;;;;;;;;4991210;28;20243;-73
2024/01/04 08:14:47;;;;;;;2.50;1.20;;;;;;;;;;4987883;28;20204;-71
2024/01/04 08:17:15;;;;;;;3.00;1.30;;;;;;;;;;4993679;28;20311;-70
2024/01/04 08:19:44;;;;;;;3.23;1.10;;;;;;;;;;4992457;28;20204;-71
2024/01/04 08:22:12;;;;;;;1.40;1.30;;;;;;;;;;4989278;28;20239;-71
2024/01/04 08:24:41;;;;;;;2.47;1.20;;;;;;;;;;4989368;28;20641;-72
2024/01/04 08:27:09;;;;;;;1.57;1.10;;;;;;;;;;5004772;28;20242;-72
2024/01/04 08:29:36;;;;;;;1.20;0.97;;;;;;;;;;4990898;28;20286;-71
2024/01/04 08:32:04;;;;;;;5.37;1.60;;;;;;;;;;4991424;28;20231;-71
2024/01/04 08:34:31;;;;;;;5.13;1.57;;;;;;;;;;4991507;28;20595;-70
2024/01/04 08:36:59;;;;;;;2.07;1.30;;;;;;;;;;4991423;28;20208;-74
2024/01/04 08:39:26;;;;;;;2.57;1.33;;;;;;;;;;5012942;28;20203;-71
2024/01/04 08:41:53;;;;;;;3.07;1.53;;;;;;;;;;5030941;28;20203;-70
2024/01/04 08:44:21;;;;;;;3.20;1.30;;;;;;;;;;5016283;28;20295;-71
2024/01/04 08:46:50;;;;;;;3.70;1.40;;;;;;;;;;5010891;28;20211;-72
2024/01/04 08:49:18;;;;;;;5.10;1.43;;;;;;;;;;5010650;28;20664;-72
2024/01/04 08:51:45;;;;;;;4.67;1.23;;;;;;;;;;5010752;28;20207;-72
2024/01/04 08:54:13;;;;;;;2.23;1.30;;;;;;;;;;5009880;28;20208;-70
2024/01/04 08:56:40;;;;;;;1.17;1.07;;;;;;;;;;5008563;28;20807;-71
2024/01/04 08:59:08;;;;;;;3.30;1.10;;;;;;;;;;5010359;28;20261;-71
2024/01/04 09:01:35;;;;;;;1.20;1.17;;;;;;;;;;5012968;28;20207;-72
2024/01/04 09:04:02;;;;;;;3.10;1.27;;;;;;;;;;5011125;28;20219;-71
2024/01/04 09:06:32;;;;;;;1.67;1.00;;;;;;;;;;5010127;28;20261;-71
2024/01/04 09:09:00;;;;;;;2.73;1.03;;;;;;;;;;5009894;28;20238;-73
2024/01/04 09:11:30;;;;;;;2.13;1.20;;;;;;;;;;5009611;28;20203;-73
2024/01/04 09:13:58;;;;;;;1.27;0.97;;;;;;;;;;5009776;28;20231;-73
2024/01/04 09:16:25;;;;;;;1.10;1.00;;;;;;;;;;5008863;28;20208;-70
2024/01/04 09:18:53;;;;;;;2.77;1.00;;;;;;;;;;5008894;28;20718;-69
2024/01/04 09:21:22;;;;;;;2.23;1.17;;;;;;;;;;5019297;28;20663;-73
2024/01/04 09:23:50;;;;;;;1.77;1.20;;;;;;;;;;5010229;28;20251;-71
2024/01/04 09:26:18;;;;;;;1.37;1.10;;;;;;;;;;5008905;28;20656;-72
2024/01/04 09:28:45;;;;;;;2.40;1.10;;;;;;;;;;5009400;28;20223;-69
2024/01/04 09:31:13;;;;;;;1.10;1.10;;;;;;;;;;5008693;28;20624;-69
2024/01/04 09:33:42;;;;;;;1.57;1.00;;;;;;;;;;5027744;28;20235;-71
2024/01/04 09:36:10;;;;;;;1.90;1.10;;;;;;;;;;5030446;28;20787;-72
2024/01/04 09:38:39;;;;;;;2.10;1.23;;;;;;;;;;5017101;28;20192;-70
2024/01/04 09:41:14;;;;;;;2.73;1.10;;;;;;;;;;5012586;28;20211;-73
2024/01/04 09:43:41;;;;;;;1.20;1.10;;;;;;;;;;5012218;28;20234;-72
2024/01/04 09:46:12;;;;;;;0.90;0.90;;;;;;;;;;5016232;28;20463;-72
2024/01/04 09:48:42;;;;;;;1.20;1.10;;;;;;;;;;5013895;28;20212;-73
2024/01/04 09:51:10;;;;;;;3.50;1.20;;;;;;;;;;5013307;28;20192;-73
2024/01/04 09:53:38;;;;;;;3.53;1.10;;;;;;;;;;5013266;28;20709;-71
2024/01/04 09:56:08;;;;;;;2.47;1.00;;;;;;;;;;5013351;28;20211;-72
2024/01/04 09:58:35;;;;;;;2.63;1.20;;;;;;;;;;5005964;28;20207;-71
2024/01/04 10:01:04;;;;;;;2.03;1.20;;;;;;;;;;5013529;28;20203;-72
2024/01/04 10:03:32;;;;;;;1.53;1.30;;;;;;;;;;5013806;28;20227;-70
2024/01/04 10:06:02;;;;;;;1.50;1.30;;;;;;;;;;5017861;28;20214;-72
2024/01/04 10:08:33;;;;;;;1.60;1.50;;;;;;;;;;5025520;28;20227;-69
2024/01/04 10:11:04;;;;;;;1.57;1.47;;;;;;;;;;5011894;28;20199;-73
2024/01/04 10:13:33;;;;;;;4.03;1.80;;;;;;;;;;5012570;28;20660;-71
2024/01/04 10:16:05;;;;;;;3.20;2.43;;;;;;;;;;5013069;28;20648;-70
2024/01/04 10:18:34;;;;;;;3.60;1.50;;;;;;;;;;5011871;28;20214;-71
2024/01/04 10:21:05;;;;;;;3.27;1.73;;;;;;;;;;5011241;28;20211;-70
2024/01/04 10:23:32;;;;;;;3.17;1.57;;;;;;;;;;5020260;28;20265;-73
2024/01/04 10:26:09;;;;;;;2.03;1.67;;;;;;;;;;5027368;28;20599;-70
2024/01/04 10:28:40;;;;;;;1.87;1.60;;;;;;;;;;5030453;28;20226;-73
2024/01/04 10:31:08;;;;;;;1.07;1.00;;;;;;;;;;5032669;28;20192;-71
2024/01/04 10:33:42;;;;;;;2.93;1.37;;;;;;;;;;5032045;28;20305;-70
2024/01/04 10:36:10;;;;;;;2.20;1.20;;;;;;;;;;5014882;28;20203;-70
2024/01/04 10:38:38;;;;;;;1.50;1.33;;;;;;;;;;5031919;28;20213;-70
2024/01/04 10:41:06;;;;;;;3.40;2.37;;;;;;;;;;5025138;28;20281;-73
2024/01/04 10:43:34;;;;;;;2.83;2.07;;;;;;;;;;5031112;28;20838;-68
2024/01/04 10:46:08;;;;;;;2.43;1.40;;;;;;;;;;5028877;28;20204;-71
2024/01/04 10:48:36;;;;;;;3.23;1.50;;;;;;;;;;5011588;28;20249;-70
2024/01/04 10:51:05;;;;;;;4.47;1.60;;;;;;;;;;5011287;28;20312;-69
2024/01/04 10:53:35;;;;;;;4.40;1.87;;;;;;;;;;5011310;28;20289;-69
2024/01/04 10:56:06;;;;;;;3.37;1.60;;;;;;;;;;5010790;28;20187;-72
2024/01/04 10:58:35;;;;;;;2.33;1.57;;;;;;;;;;5012154;28;20216;-72
2024/01/04 11:01:06;;;;;;;5.73;2.40;;;;;;;;;;5011629;28;20335;-72
2024/01/04 11:03:33;;;;;;;2.57;1.50;;;;;;;;;;5011526;28;20243;-72
2024/01/04 11:06:04;;;;;;;1.70;1.13;;;;;;;;;;5009776;28;20223;-72
2024/01/04 11:08:33;;;;;;;2.93;1.50;;;;;;;;;;5011288;28;20243;-70
2024/01/04 11:11:02;;;;;;;2.40;1.27;;;;;;;;;;5011598;28;20203;-71
2024/01/04 11:13:29;;;;;;;2.57;1.20;;;;;;;;;;5014972;28;20229;-71
2024/01/04 11:15:58;;;;;;;1.37;1.10;;;;;;;;;;5030303;28;20230;-71
2024/01/04 11:18:48;;;;;;;4.30;1.50;;;;;;;;;;5031178;28;20277;-70
2024/01/04 11:21:26;;;;;;;4.57;1.50;;;;;;;;;;5026022;28;20215;-69
2024/01/04 11:23:53;;;;;;;2.83;1.30;;;;;;;;;;5011977;28;20599;-69
2024/01/04 11:26:26;;;;;;;3.43;1.10;;;;;;;;;;5011997;28;20246;-69
2024/01/04 11:28:58;;;;;;;4.47;1.20;;;;;;;;;;5010461;28;20223;-71
2024/01/04 11:31:26;;;;;;;2.57;1.30;;;;;;;;;;5011813;28;20612;-69
2024/01/04 11:33:54;;;;;;;2.27;1.50;;;;;;;;;;5012205;28;20227;-70
2024/01/04 11:36:23;;;;;;;4.67;1.47;;;;;;;;;;5011534;28;20200;-72
2024/01/04 11:38:51;;;;;;;3.33;1.23;;;;;;;;;;5011780;28;20229;-72
2024/01/04 11:41:18;;;;;;;2.40;1.40;;;;;;;;;;5010402;28;20246;-69
2024/01/04 11:43:47;;;;;;;1.80;1.10;;;;;;;;;;5013622;28;20265;-70
2024/01/04 11:46:20;;;;;;;2.97;1.50;;;;;;;;;;5011325;28;20291;-72
2024/01/04 11:49:00;;;;;;;2.50;1.13;;;;;;;;;;5022635;28;20231;-70
2024/01/04 11:51:49;;;;;;;2.17;1.77;;;;;;;;;;5016243;28;20607;-69
2024/01/04 11:54:17;;;;;;;4.27;2.83;;;;;;;;;;5009835;28;20740;-69
2024/01/04 11:56:46;;;;;;;2.80;1.37;;;;;;;;;;5011531;28;20667;-71
2024/01/04 11:59:17;;;;;;;2.53;1.30;;;;;;;;;;5009520;28;20199;-73
2024/01/04 12:01:46;;;;;;;4.93;1.43;;;;;;;;;;5010727;28;20192;-71
2024/01/04 12:04:14;;;;;;;2.53;1.17;;;;;;;;;;5011275;28;20306;-72
2024/01/04 12:06:42;;;;;;;3.63;1.50;;;;;;;;;;5011765;28;20230;-69
2024/01/04 12:09:10;;;;;;;3.77;1.70;;;;;;;;;;5010045;28;20650;-71
2024/01/04 12:11:39;;;;;;;8.40;3.40;;;;;;;;;;5021454;28;20229;-71
2024/01/04 12:14:08;;;;;;;22.20;12.23;;;;;;;;;;5010733;28;20227;-71
2024/01/04 12:16:38;;;;;;;6.43;4.43;;;;;;;;;;5010923;28;20262;-72
2024/01/04 12:19:07;;;;;;;8.17;4.27;;;;;;;;;;5010992;28;20207;-70
2024/01/04 12:21:35;;;;;;;2.97;2.20;;;;;;;;;;5010535;28;20211;-70
2024/01/04 12:24:03;;;;;;;3.43;1.40;;;;;;;;;;5011019;28;20232;-72
2024/01/04 12:26:31;;;;;;;4.07;2.00;;;;;;;;;;5010939;28;20282;-70
2024/01/04 12:29:00;;;;;;;3.20;2.50;;;;;;;;;;5010545;28;20613;-69
2024/01/04 12:31:29;;;;;;;2.23;1.50;;;;;;;;;;5011282;28;20652;-71
2024/01/04 12:33:58;;;;;;;1.40;1.30;;;;;;;;;;5010608;28;20275;-73
2024/01/04 12:36:26;;;;;;;2.83;1.53;;;;;;;;;;5011166;28;20207;-71
2024/01/04 12:39:06;;;;;;;4.40;1.40;;;;;;;;;;5011109;28;20568;-71
2024/01/04 12:41:37;;;;;;;1.40;1.30;;;;;;;;;;5010645;28;20601;-73
2024/01/04 12:44:04;;;;;;;2.60;1.20;;;;;;;;;;5010301;28;20223;-71
2024/01/04 12:46:32;;;;;;;3.33;1.43;;;;;;;;;;5008614;28;20201;-72
2024/01/04 12:49:09;;;;;;;2.43;1.30;;;;;;;;;;5009045;28;20231;-71
2024/01/04 12:51:39;;;;;;;2.07;1.33;;;;;;;;;;5010409;28;20612;-69
2024/01/04 12:54:06;;;;;;;2.77;1.60;;;;;;;;;;5011197;28;20307;-72
2024/01/04 12:56:35;;;;;;;2.87;1.30;;;;;;;;;;5011565;28;20261;-72
2024/01/04 12:59:04;;;;;;;2.40;1.20;;;;;;;;;;5029733;28;20674;-70
2024/01/04 13:01:31;;;;;;;1.77;1.23;;;;;;;;;;5018591;28;20239;-70
2024/01/04 13:04:00;;;;;;;4.03;1.50;;;;;;;;;;5005919;28;20261;-70
2024/01/04 13:06:27;;;;;;;2.20;1.43;;;;;;;;;;4994051;28;20636;-71
2024/01/04 13:08:56;;;;;;;3.10;1.10;;;;;;;;;;4988705;28;20274;-72
2024/01/04 13:11:24;;;;;;;1.47;1.20;;;;;;;;;;4994442;28;20211;-71
2024/01/04 13:13:52;;;;;;;2.00;0.90;;;;;;;;;;4998174;28;20301;-69
2024/01/04 13:16:19;;;;;;;1.63;1.10;;;;;;;;;;4998257;28;20239;-70
2024/01/04 13:18:47;;;;;;;2.93;1.40;;;;;;;;;;4996556;28;20223;-70
2024/01/04 13:21:15;;;;;;;2.30;1.40;;;;;;;;;;5003016;28;20525;-71
2024/01/04 13:23:43;;;;;;;1.47;1.07;;;;;;;;;;5000189;28;20254;-71
2024/01/04 13:26:11;;;;;;;1.27;1.00;;;;;;;;;;5002530;28;20214;-70
2024/01/04 13:28:38;;;;;;;2.50;1.70;;;;;;;;;;4999395;28;20235;-71
2024/01/04 13:31:08;;;;;;;1.73;1.17;;;;;;;;;;4992971;28;20208;-70
2024/01/04 13:33:35;;;;;;;2.93;2.37;;;;;;;;;;5011228;28;20233;-73
2024/01/04 13:36:03;;;;;;;2.50;1.40;;;;;;;;;;5003179;28;20278;-70
2024/01/04 13:38:31;;;;;;;4.73;3.17;;;;;;;;;;5005040;28;20207;-71
2024/01/04 13:40:58;;;;;;;4.73;2.53;;;;;;;;;;5003743;28;20211;-71
2024/01/04 13:43:26;;;;;;;2.40;1.53;;;;;;;;;;4996995;28;20272;-72
2024/01/04 13:45:53;;;;;;;4.70;1.53;;;;;;;;;;5000567;28;20231;-70
2024/01/04 13:48:22;;;;;;;2.27;1.20;;;;;;;;;;4994613;28;20232;-71
2024/01/04 13:50:50;;;;;;;5.60;2.47;;;;;;;;;;4996753;28;20214;-72
2024/01/04 13:53:17;;;;;;;3.47;1.27;;;;;;;;;;5000406;28;20223;-71
2024/01/04 13:55:47;;;;;;;1.43;1.20;;;;;;;;;;5003141;28;20298;-71
2024/01/04 13:58:14;;;;;;;2.63;1.20;;;;;;;;;;4994706;28;20593;-71
2024/01/04 14:00:42;;;;;;;3.67;1.97;;;;;;;;;;4995484;28;20203;-72
2024/01/04 14:03:09;;;;;;;3.47;2.00;;;;;;;;;;5005898;28;20337;-72
2024/01/04 14:05:38;;;;;;;1.63;1.40;;;;;;;;;;4999123;28;20526;-72
2024/01/04 14:08:16;;;;;;;3.20;1.27;;;;;;;;;;4997694;28;20258;-72
2024/01/04 14:10:45;;;;;;;4.37;1.30;;;;;;;;;;4997502;28;20208;-72
2024/01/04 14:13:12;;;;;;;1.83;1.13;;;;;;;;;;4997140;28;20223;-72
2024/01/04 14:15:40;;;;;;;2.27;1.40;;;;;;;;;;4996069;28;20203;-71
2024/01/04 14:18:07;;;;;;;2.47;1.20;;;;;;;;;;4985486;28;20216;-73
2024/01/04 14:20:35;;;;;;;3.33;1.30;;;;;;;;;;4993312;28;20640;-71
2024/01/04 14:23:02;;;;;;;4.30;1.50;;;;;;;;;;4995855;28;20294;-72
2024/01/04 14:25:30;;;;;;;2.13;1.13;;;;;;;;;;4997465;28;20743;-72
2024/01/04 14:27:58;;;;;;;2.80;1.27;;;;;;;;;;4994172;28;20294;-71
2024/01/04 14:30:25;;;;;;;2.10;1.10;;;;;;;;;;4996087;28;20212;-71
2024/01/04 14:32:53;;;;;;;3.40;1.20;;;;;;;;;;4999337;28;20235;-71
2024/01/04 14:35:20;;;;;;;3.53;1.60;;;;;;;;;;4999503;28;20572;-71
2024/01/04 14:37:48;;;;;;;3.33;1.40;;;;;;;;;;4993615;28;20214;-72
2024/01/04 14:40:16;;;;;;;2.57;1.13;;;;;;;;;;4998292;28;20230;-71
2024/01/04 14:42:47;;;;;;;4.53;1.40;;;;;;;;;;5004883;28;20227;-72
2024/01/04 14:45:15;;;;;;;4.83;1.33;;;;;;;;;;5006949;28;20199;-71
2024/01/04 14:47:44;;;;;;;14.33;7.80;;;;;;;;;;5001113;28;20547;-71
2024/01/04 14:50:13;;;;;;;4.33;2.20;;;;;;;;;;5002663;28;20960;-71